TimeCST,TemperatureF,Dew PointF,Humidity,Sea Level PressureIn,VisibilityMPH,Wind Direction,Wind SpeedMPH,Gust SpeedMPH,PrecipitationIn,Events,Conditions,WindDirDegrees,DateUTC
12:15 AM,59.0,55.4,88,30.27,6.0,ESE,8.1,-,N/A,,Overcast,110,2013-01-10 06:15:00
12:35 AM,59.0,57.2,94,30.27,7.0,East,8.1,-,N/A,,Overcast,100,2013-01-10 06:35:00
12:55 AM,60.8,57.2,88,30.27,7.0,East,9.2,-,N/A,,Overcast,100,2013-01-10 06:55:00
1:15 AM,60.8,57.2,88,30.27,8.0,ESE,8.1,-,N/A,,Overcast,110,2013-01-10 07:15:00
1:35 AM,60.8,57.2,88,30.27,8.0,ESE,11.5,-,N/A,,Overcast,120,2013-01-10 07:35:00
1:55 AM,60.8,59.0,94,30.27,7.0,ESE,9.2,-,N/A,,Overcast,120,2013-01-10 07:55:00
2:15 AM,60.8,59.0,94,30.27,7.0,SE,10.4,-,N/A,,Overcast,130,2013-01-10 08:15:00
2:35 AM,60.8,59.0,94,30.26,7.0,ESE,12.7,-,N/A,,Overcast,120,2013-01-10 08:35:00
2:55 AM,60.8,59.0,94,30.25,6.0,SE,11.5,-,N/A,,Overcast,130,2013-01-10 08:55:00
3:15 AM,62.6,59.0,88,30.24,5.0,SE,10.4,-,N/A,,Overcast,130,2013-01-10 09:15:00
3:35 AM,62.6,59.0,88,30.23,5.0,ESE,11.5,-,N/A,,Overcast,120,2013-01-10 09:35:00
3:55 AM,62.6,59.0,88,30.23,4.0,SE,12.7,17.3,N/A,,Overcast,130,2013-01-10 09:55:00
4:16 AM,62.6,59.0,88,30.22,5.0,SE,11.5,-,N/A,,Overcast,130,2013-01-10 10:16:00
4:35 AM,62.6,60.8,94,30.21,5.0,ESE,12.7,-,N/A,,Overcast,120,2013-01-10 10:35:00
4:55 AM,62.6,60.8,94,30.21,5.0,ESE,13.8,17.3,N/A,,Overcast,120,2013-01-10 10:55:00
5:15 AM,62.6,59.0,88,30.21,5.0,SE,12.7,-,N/A,,Overcast,130,2013-01-10 11:15:00
5:35 AM,62.6,60.8,94,30.21,4.0,ESE,13.8,-,N/A,,Overcast,120,2013-01-10 11:35:00
5:45 AM,62.6,60.8,94,30.21,3.0,SE,11.5,-,N/A,,Overcast,130,2013-01-10 11:45:00
5:55 AM,62.6,60.8,94,30.21,4.0,SE,11.5,-,N/A,,Overcast,130,2013-01-10 11:55:00
6:45 AM,62.6,59.0,88,30.21,3.0,SE,9.2,-,N/A,,Overcast,130,2013-01-10 12:45:00
7:45 AM,62.6,60.8,94,30.24,2.0,SE,11.5,-,N/A,,Overcast,130,2013-01-10 13:45:00
9:45 AM,64.4,60.8,88,30.22,2.0,SE,17.3,-,N/A,,Overcast,130,2013-01-10 15:45:00
10:45 AM,64.4,62.6,94,30.21,2.0,SE,12.7,-,N/A,,Overcast,140,2013-01-10 16:45:00
11:45 AM,64.4,62.6,94,30.18,6.0,SSE,13.8,-,N/A,,Overcast,150,2013-01-10 17:45:00
12:55 PM,66.2,62.6,88,30.18,5.0,South,9.2,-,N/A,,Overcast,170,2013-01-10 18:55:00
1:50 PM,66.2,62.6,88,30.15,4.0,SSE,9.2,-,N/A,,Overcast,150,2013-01-10 19:50:00
2:50 PM,68.0,64.4,88,30.12,4.0,SE,11.5,-,N/A,,Overcast,140,2013-01-10 20:50:00
3:07 PM,68.0,64.4,88,30.12,7.0,SE,13.8,-,N/A,,Mostly Cloudy,140,2013-01-10 21:07:00
3:55 PM,66.2,64.4,94,30.12,4.0,SSE,6.9,-,N/A,Rain,Light Rain,150,2013-01-10 21:55:00
4:10 PM,66.2,64.4,94,30.12,2.0,SSE,6.9,-,N/A,Rain,Light Rain,150,2013-01-10 22:10:00
4:30 PM,66.2,64.4,94,30.11,1.0,Calm,Calm,-,N/A,Rain-Thunderstorm,Thunderstorms and Rain,0,2013-01-10 22:30:00
4:50 PM,64.4,60.8,88,30.10,5.0,SSE,9.2,-,N/A,Rain,Light Rain,160,2013-01-10 22:50:00
5:50 PM,66.2,64.4,94,30.04,5.0,ESE,13.8,23.0,N/A,Rain,Light Rain,120,2013-01-10 23:50:00
6:45 PM,66.2,62.6,88,29.99,7.0,SE,18.4,25.3,N/A,,Overcast,140,2013-01-11 00:45:00
7:50 PM,66.2,62.6,88,29.99,10.0,SSE,16.1,-,N/A,,Mostly Cloudy,160,2013-01-11 01:50:00
8:15 PM,66.2,62.6,88,29.99,10.0,SSE,15.0,-,N/A,,Partly Cloudy,160,2013-01-11 02:15:00
8:35 PM,66.2,62.6,88,30.01,10.0,South,16.1,-,N/A,,Scattered Clouds,170,2013-01-11 02:35:00
8:55 PM,66.2,62.6,88,30.01,10.0,South,16.1,20.7,N/A,,Overcast,170,2013-01-11 02:55:00
9:15 PM,66.2,62.6,88,30.01,10.0,South,16.1,21.9,N/A,,Overcast,170,2013-01-11 03:15:00
9:35 PM,66.2,62.6,88,30.02,10.0,South,13.8,-,N/A,,Overcast,170,2013-01-11 03:35:00
9:55 PM,66.2,62.6,88,30.02,10.0,South,11.5,-,N/A,,Overcast,180,2013-01-11 03:55:00
10:15 PM,66.2,62.6,88,30.03,10.0,South,11.5,-,N/A,,Mostly Cloudy,170,2013-01-11 04:15:00
10:35 PM,64.4,62.6,94,30.04,10.0,South,11.5,-,N/A,,Mostly Cloudy,170,2013-01-11 04:35:00
10:55 PM,64.4,62.6,94,30.04,10.0,South,12.7,-,N/A,,Mostly Cloudy,180,2013-01-11 04:55:00
11:15 PM,64.4,62.6,94,30.04,10.0,South,11.5,-,N/A,,Mostly Cloudy,180,2013-01-11 05:15:00
11:55 PM,66.2,62.6,88,30.04,10.0,South,13.8,19.6,N/A,,Overcast,180,2013-01-11 05:55:00